Time;durP1;ratioP1;P1;durP2;ratioP2;P2;SDS_P1;SDS_P2;PMS_P1;PMS_P2;Temp;Humidity;BMP_temperature;BMP_pressure;BME280_temperature;BME280_humidity;BME280_pressure;Samples;Min_cycle;Max_cycle;Signal;HPM_P1;HPM_P2
2022/03/24 00:01:46;;;;;;;8.40;6.73;;;8.60;53.10;;;;;;5096637;28;20184;-86
2022/03/24 00:04:11;;;;;;;8.27;5.83;;;8.60;53.10;;;;;;5097614;28;20303;-87
2022/03/24 00:06:37;;;;;;;7.03;6.17;;;8.50;53.30;;;;;;5097990;28;20177;-89
2022/03/24 00:09:04;;;;;;;8.20;5.80;;;8.50;53.40;;;;;;5097369;28;20174;-88
2022/03/24 00:11:30;;;;;;;8.53;6.10;;;8.50;53.60;;;;;;5084104;28;20549;-85
2022/03/24 00:13:56;;;;;;;7.77;6.13;;;8.40;53.70;;;;;;5110303;28;20197;-88
2022/03/24 00:16:22;;;;;;;9.17;5.87;;;8.40;53.90;;;;;;5099651;28;20174;-91
2022/03/24 00:18:48;;;;;;;7.83;6.07;;;8.40;53.90;;;;;;5098068;28;20258;-89
2022/03/24 00:21:17;;;;;;;9.90;5.63;;;8.30;54.00;;;;;;5097044;28;20219;-91
2022/03/24 00:23:43;;;;;;;7.57;5.77;;;8.30;54.10;;;;;;5098071;28;20222;-90
2022/03/24 00:26:09;;;;;;;9.63;6.23;;;8.20;54.30;;;;;;5098549;28;20165;-84
2022/03/24 00:28:35;;;;;;;7.83;6.60;;;8.20;54.40;;;;;;5086789;28;20321;-87
2022/03/24 00:31:01;;;;;;;7.33;5.87;;;8.10;54.50;;;;;;5101264;28;20168;-86
2022/03/24 00:33:28;;;;;;;7.40;6.03;;;8.00;54.60;;;;;;5098994;28;20210;-90
2022/03/24 00:35:55;;;;;;;7.60;6.57;;;8.10;54.60;;;;;;5097175;28;20179;-87
2022/03/24 00:38:21;;;;;;;7.80;5.73;;;8.00;54.80;;;;;;5097218;28;20698;-88
2022/03/24 00:40:48;;;;;;;8.50;6.03;;;8.00;54.80;;;;;;5097831;28;20191;-86
2022/03/24 00:43:14;;;;;;;7.03;5.80;;;8.00;55.00;;;;;;5101717;28;20200;-87
2022/03/24 00:45:40;;;;;;;7.20;5.70;;;8.00;55.10;;;;;;5100448;28;20224;-91
2022/03/24 00:48:09;;;;;;;6.30;5.60;;;8.00;55.00;;;;;;5078482;28;20702;-91
2022/03/24 00:50:35;;;;;;;7.30;5.47;;;7.90;55.20;;;;;;5078815;28;20219;-90
2022/03/24 00:53:02;;;;;;;9.10;5.77;;;7.90;55.20;;;;;;5096936;28;20169;-89
2022/03/24 00:55:29;;;;;;;6.17;5.53;;;8.00;55.30;;;;;;5096385;28;20255;-91
2022/03/24 00:57:55;;;;;;;7.37;6.20;;;8.00;55.10;;;;;;5096632;28;20181;-89
2022/03/24 01:00:25;;;;;;;9.03;6.03;;;8.00;55.00;;;;;;5096562;28;20641;-90
2022/03/24 01:02:52;;;;;;;11.03;6.10;;;8.00;55.10;;;;;;5078935;28;20178;-86
2022/03/24 01:05:27;;;;;;;7.23;5.70;;;7.90;55.20;;;;;;5082937;28;20179;-88
2022/03/24 01:07:54;;;;;;;8.53;5.40;;;8.00;55.20;;;;;;5102253;28;20177;-84
2022/03/24 01:10:21;;;;;;;8.50;5.77;;;8.00;55.10;;;;;;5098306;28;20233;-86
2022/03/24 01:12:49;;;;;;;6.43;5.07;;;8.00;55.30;;;;;;5097607;28;20348;-84
2022/03/24 01:15:18;;;;;;;6.03;5.13;;;8.00;55.10;;;;;;5096859;28;20618;-84
2022/03/24 01:17:44;;;;;;;9.30;5.37;;;8.00;55.30;;;;;;5115215;28;20172;-84
2022/03/24 01:20:12;;;;;;;7.97;5.47;;;8.00;55.10;;;;;;5119909;28;20174;-85
2022/03/24 01:22:39;;;;;;;8.23;5.10;;;7.90;55.30;;;;;;5099244;28;20170;-84
2022/03/24 01:25:06;;;;;;;6.83;5.60;;;7.90;55.40;;;;;;5097492;28;20166;-85
2022/03/24 01:27:32;;;;;;;7.60;5.50;;;7.80;55.60;;;;;;5097594;28;20180;-87
2022/03/24 01:29:59;;;;;;;10.37;5.60;;;7.80;55.40;;;;;;5098553;28;20251;-88
2022/03/24 01:32:28;;;;;;;9.77;5.40;;;7.90;55.60;;;;;;5079591;28;20207;-86
2022/03/24 01:34:55;;;;;;;6.07;5.47;;;7.80;55.60;;;;;;5103001;28;20213;-89
2022/03/24 01:37:23;;;;;;;6.33;5.37;;;7.90;55.60;;;;;;5109140;28;20190;-92
2022/03/24 01:39:52;;;;;;;6.23;5.53;;;7.90;55.50;;;;;;5111598;28;20173;-88
2022/03/24 01:42:19;;;;;;;6.00;5.40;;;7.80;55.60;;;;;;5114072;28;20169;-92
2022/03/24 01:44:48;;;;;;;5.97;5.20;;;7.80;55.80;;;;;;5105754;28;20240;-86
2022/03/24 01:47:15;;;;;;;5.77;5.20;;;7.80;55.60;;;;;;5095572;28;20223;-85
2022/03/24 01:49:50;;;;;;;6.23;4.70;;;7.80;55.50;;;;;;5095291;28;20169;-88
2022/03/24 01:52:18;;;;;;;5.63;4.90;;;7.90;55.50;;;;;;5077326;28;20170;-89
2022/03/24 01:54:47;;;;;;;7.90;5.10;;;8.00;55.30;;;;;;5095362;28;20229;-90
2022/03/24 01:57:15;;;;;;;9.30;5.03;;;7.90;55.30;;;;;;5097021;28;20171;-88
2022/03/24 01:59:41;;;;;;;5.97;5.10;;;7.90;55.40;;;;;;5099850;28;20621;-88
2022/03/24 02:02:09;;;;;;;5.80;5.20;;;8.00;55.40;;;;;;5099671;28;20635;-88
2022/03/24 02:04:35;;;;;;;5.37;4.87;;;7.90;55.60;;;;;;5099416;28;20177;-88
2022/03/24 02:07:05;;;;;;;5.23;4.60;;;7.90;55.70;;;;;;5104742;28;20499;-90
2022/03/24 02:09:33;;;;;;;5.40;4.90;;;7.90;55.40;;;;;;5096026;28;20654;-91
2022/03/24 02:12:01;;;;;;;8.70;5.10;;;7.90;55.40;;;;;;5094910;28;20197;-87
2022/03/24 02:14:29;;;;;;;11.47;5.10;;;7.90;55.70;;;;;;5096032;28;20685;-87
2022/03/24 02:16:56;;;;;;;6.37;4.73;;;7.80;56.10;;;;;;5094824;28;20257;-87
2022/03/24 02:19:23;;;;;;;7.00;5.20;;;7.70;56.30;;;;;;5076736;28;20178;-91
2022/03/24 02:21:51;;;;;;;5.97;5.17;;;7.70;56.40;;;;;;5099707;28;20568;-91
2022/03/24 02:24:19;;;;;;;6.63;5.20;;;7.70;56.60;;;;;;5094826;28;20204;-90
2022/03/24 02:26:47;;;;;;;6.13;5.53;;;7.60;56.80;;;;;;5094645;28;20216;-88
2022/03/24 02:29:14;;;;;;;6.17;5.17;;;7.50;57.00;;;;;;5094614;28;20226;-89
2022/03/24 02:31:46;;;;;;;6.27;5.53;;;7.60;56.70;;;;;;5076394;28;20177;-89
2022/03/24 02:37:06;;;;;;;7.97;5.97;;;7.50;57.10;;;;;;5095672;28;20180;-90
2022/03/24 02:39:32;;;;;;;10.20;7.43;;;7.50;56.80;;;;;;5096517;28;20274;-88
2022/03/24 02:42:00;;;;;;;12.73;7.20;;;7.50;57.80;;;;;;5104866;28;20177;-90
2022/03/24 02:44:30;;;;;;;11.60;8.07;;;7.40;58.00;;;;;;5105670;28;20236;-89
2022/03/24 02:46:58;;;;;;;8.20;6.90;;;7.40;58.20;;;;;;5103109;28;20224;-88
2022/03/24 02:49:26;;;;;;;12.97;7.80;;;7.30;58.70;;;;;;5097644;28;20231;-90
2022/03/24 02:51:54;;;;;;;14.80;7.30;;;7.30;59.00;;;;;;5097660;28;20222;-91
2022/03/24 02:54:21;;;;;;;21.07;7.90;;;7.30;58.70;;;;;;5097992;28;20195;-89
2022/03/24 02:56:47;;;;;;;12.00;8.57;;;7.20;58.80;;;;;;5106394;28;20166;-84
2022/03/24 02:59:14;;;;;;;12.77;8.83;;;7.20;59.40;;;;;;5103616;28;20255;-85
2022/03/24 03:01:43;;;;;;;12.73;9.63;;;7.10;60.20;;;;;;5097018;28;20166;-88
2022/03/24 03:04:15;;;;;;;13.03;9.60;;;7.00;61.40;;;;;;5116855;28;20188;-87
2022/03/24 03:06:42;;;;;;;11.70;9.83;;;6.80;61.70;;;;;;5116774;28;20159;-91
2022/03/24 03:09:08;;;;;;;12.97;9.40;;;6.70;62.00;;;;;;5098496;28;20162;-92
2022/03/24 03:11:34;;;;;;;14.30;10.30;;;6.60;62.10;;;;;;5096968;28;20170;-92
2022/03/24 03:14:01;;;;;;;16.57;10.10;;;6.40;62.40;;;;;;5097570;28;20209;-91
2022/03/24 03:16:27;;;;;;;17.90;10.17;;;6.30;63.00;;;;;;5105008;28;20163;-89
2022/03/24 03:18:53;;;;;;;14.27;10.37;;;6.20;63.20;;;;;;5096000;28;20173;-91
2022/03/24 03:21:20;;;;;;;15.73;11.00;;;6.00;63.30;;;;;;5095093;28;20249;-92
2022/03/24 03:23:46;;;;;;;17.00;11.27;;;5.90;64.60;;;;;;5076872;28;20583;-92
2022/03/24 03:26:12;;;;;;;15.20;11.00;;;5.90;63.90;;;;;;5097787;28;20181;-93
2022/03/24 03:28:39;;;;;;;19.90;10.67;;;5.70;63.90;;;;;;5098438;28;20224;-87
2022/03/24 03:31:05;;;;;;;18.43;11.27;;;5.70;64.20;;;;;;5098585;28;20171;-90
2022/03/24 03:33:32;;;;;;;15.03;10.63;;;5.60;64.20;;;;;;5098225;28;20218;-91
2022/03/24 03:35:58;;;;;;;15.37;10.93;;;5.60;64.70;;;;;;5100228;28;20189;-86
2022/03/24 03:38:26;;;;;;;13.93;10.30;;;5.50;64.30;;;;;;5100784;28;20170;-84
2022/03/24 03:40:53;;;;;;;16.17;11.23;;;5.50;64.40;;;;;;5100354;28;20261;-86
2022/03/24 03:43:19;;;;;;;19.57;11.57;;;5.40;64.40;;;;;;5081065;28;20593;-89
2022/03/24 03:45:45;;;;;;;16.07;11.57;;;5.40;64.50;;;;;;5097344;28;20175;-85
2022/03/24 03:48:11;;;;;;;18.00;11.37;;;5.30;64.70;;;;;;5097666;28;20614;-88
2022/03/24 03:50:39;;;;;;;14.27;10.83;;;5.30;65.00;;;;;;5097440;28;20185;-85
2022/03/24 03:53:05;;;;;;;14.97;10.33;;;5.20;65.20;;;;;;5097472;28;20526;-86
2022/03/24 03:55:31;;;;;;;16.13;11.13;;;5.20;64.90;;;;;;5097763;28;20296;-91
2022/03/24 03:57:57;;;;;;;23.37;11.50;;;5.20;64.90;;;;;;5097407;28;20174;-87
2022/03/24 04:03:07;;;;;;;17.67;11.60;;;5.10;65.10;;;;;;5099031;28;20209;-85
2022/03/24 04:05:33;;;;;;;15.13;11.73;;;5.00;65.50;;;;;;5099603;28;20629;-84
2022/03/24 04:08:01;;;;;;;17.43;11.57;;;4.90;65.90;;;;;;5101725;28;20175;-87
2022/03/24 04:10:27;;;;;;;14.33;11.37;;;4.90;65.90;;;;;;5100915;28;20165;-88
2022/03/24 04:12:55;;;;;;;19.83;11.60;;;4.90;66.30;;;;;;5099410;28;20192;-87
2022/03/24 04:15:22;;;;;;;21.90;12.03;;;4.80;66.60;;;;;;5104268;28;20285;-89
2022/03/24 04:17:48;;;;;;;23.30;11.50;;;4.70;66.70;;;;;;5100529;28;20162;-88
2022/03/24 04:20:18;;;;;;;16.67;11.43;;;4.70;66.70;;;;;;5079296;28;20271;-85
2022/03/24 04:22:44;;;;;;;17.57;11.23;;;4.70;66.90;;;;;;5079571;28;20213;-86
2022/03/24 04:25:10;;;;;;;17.67;12.50;;;4.60;66.90;;;;;;5081841;28;20195;-86
2022/03/24 04:27:35;;;;;;;24.07;12.23;;;4.70;66.60;;;;;;5100649;28;20218;-88
2022/03/24 04:30:01;;;;;;;18.90;12.03;;;4.60;66.80;;;;;;5099544;28;20228;-85
2022/03/24 04:32:27;;;;;;;19.17;12.27;;;4.60;66.60;;;;;;5102516;28;20252;-84
2022/03/24 04:34:53;;;;;;;18.17;11.50;;;4.50;66.50;;;;;;5097116;28;20199;-88
2022/03/24 04:37:20;;;;;;;17.23;11.37;;;4.50;66.60;;;;;;5095684;28;20680;-84
2022/03/24 04:39:46;;;;;;;15.60;11.17;;;4.50;66.70;;;;;;5096783;28;20237;-90
2022/03/24 04:42:12;;;;;;;13.63;10.83;;;4.50;67.00;;;;;;5109190;28;20648;-86
2022/03/24 04:44:38;;;;;;;22.67;11.53;;;4.40;66.90;;;;;;5097395;28;20174;-85
2022/03/24 04:47:04;;;;;;;14.33;10.07;;;4.40;67.10;;;;;;5097823;28;20175;-88
2022/03/24 04:49:30;;;;;;;14.63;10.93;;;4.50;66.80;;;;;;5094639;28;20177;-86
2022/03/24 04:51:55;;;;;;;16.33;10.73;;;4.50;66.90;;;;;;5118999;28;20192;-86
2022/03/24 04:54:21;;;;;;;18.60;11.63;;;4.50;67.10;;;;;;5105007;28;20208;-84
2022/03/24 04:56:47;;;;;;;15.07;10.50;;;4.40;67.50;;;;;;5098950;28;20180;-87
2022/03/24 04:59:13;;;;;;;13.13;10.23;;;4.40;67.70;;;;;;5096412;28;20636;-83
2022/03/24 05:01:39;;;;;;;16.23;11.60;;;4.40;67.00;;;;;;5077733;28;20178;-85
2022/03/24 05:04:04;;;;;;;18.47;10.40;;;4.50;67.40;;;;;;5097519;28;20604;-91
2022/03/24 05:06:31;;;;;;;19.63;11.20;;;4.40;67.40;;;;;;5099900;28;20245;-88
2022/03/24 05:08:57;;;;;;;14.10;10.90;;;4.50;67.30;;;;;;5109411;28;20174;-85
2022/03/24 05:11:24;;;;;;;16.07;11.00;;;4.60;66.90;;;;;;5101739;28;20181;-91
2022/03/24 05:13:51;;;;;;;12.87;10.13;;;4.70;67.00;;;;;;5100552;28;20255;-92
2022/03/24 05:16:18;;;;;;;13.90;9.80;;;4.70;66.70;;;;;;5098065;28;20530;-88
2022/03/24 05:18:44;;;;;;;14.30;10.00;;;4.70;67.20;;;;;;5097995;28;20177;-91
2022/03/24 05:21:10;;;;;;;31.87;10.83;;;4.70;67.30;;;;;;5096150;28;20184;-88
2022/03/24 05:23:36;;;;;;;14.43;9.70;;;4.70;67.70;;;;;;5096107;28;20254;-91
2022/03/24 05:26:02;;;;;;;20.50;9.90;;;4.70;67.30;;;;;;5108672;28;20672;-87
2022/03/24 05:28:27;;;;;;;14.53;9.90;;;4.70;67.40;;;;;;5111229;28;20169;-84
2022/03/24 05:30:53;;;;;;;14.07;8.10;;;4.80;67.40;;;;;;5087648;28;20196;-87
2022/03/24 05:33:19;;;;;;;12.13;8.30;;;4.80;67.60;;;;;;5103359;28;20247;-84
2022/03/24 05:35:45;;;;;;;12.47;9.00;;;4.80;67.10;;;;;;5101047;28;20207;-87
2022/03/24 05:38:11;;;;;;;12.43;8.87;;;5.00;67.30;;;;;;5095852;28;20666;-87
2022/03/24 05:40:37;;;;;;;13.53;8.43;;;5.00;67.20;;;;;;5095979;28;20197;-85
2022/03/24 05:43:03;;;;;;;11.30;6.07;;;5.10;67.60;;;;;;5096724;28;20549;-88
2022/03/24 05:45:29;;;;;;;10.50;6.90;;;5.10;64.90;;;;;;5080416;28;20310;-84
2022/03/24 05:47:55;;;;;;;7.60;6.23;;;5.20;64.20;;;;;;5083429;28;20189;-89
2022/03/24 05:50:21;;;;;;;7.77;5.20;;;5.40;63.80;;;;;;5097758;28;20637;-88
2022/03/24 05:52:49;;;;;;;9.77;4.60;;;5.60;63.60;;;;;;5095657;28;20618;-85
2022/03/24 05:55:16;;;;;;;11.43;4.87;;;5.80;61.90;;;;;;5095576;28;20545;-87
2022/03/24 05:57:44;;;;;;;7.17;4.43;;;5.90;62.20;;;;;;5095516;28;20201;-89
2022/03/24 06:00:11;;;;;;;10.27;4.63;;;6.00;62.20;;;;;;5095256;28;20209;-84
2022/03/24 06:02:37;;;;;;;6.70;4.13;;;6.10;60.80;;;;;;5095843;28;20657;-92
2022/03/24 06:05:09;;;;;;;10.70;4.37;;;6.30;60.90;;;;;;5097897;28;20182;-83
2022/03/24 06:07:35;;;;;;;8.33;4.60;;;6.50;60.00;;;;;;5080713;28;20635;-87
2022/03/24 06:10:01;;;;;;;6.80;4.97;;;6.70;59.20;;;;;;5097347;28;20203;-89
2022/03/24 06:12:27;;;;;;;9.43;5.13;;;7.00;58.70;;;;;;5095706;28;20180;-83
2022/03/24 06:14:53;;;;;;;13.07;7.27;;;7.00;58.90;;;;;;5094905;28;20209;-89
2022/03/24 06:17:20;;;;;;;16.97;8.60;;;7.10;60.00;;;;;;5099411;28;20193;-83
2022/03/24 06:19:50;;;;;;;15.60;7.73;;;7.20;61.60;;;;;;5103721;28;20261;-88
2022/03/24 06:22:18;;;;;;;14.40;8.93;;;7.10;60.80;;;;;;5103392;28;20170;-84
2022/03/24 06:24:44;;;;;;;19.93;10.07;;;7.20;61.30;;;;;;5097520;28;20170;-89
2022/03/24 06:27:10;;;;;;;20.50;11.07;;;7.20;62.20;;;;;;5077041;28;20209;-86
2022/03/24 06:29:36;;;;;;;26.73;11.60;;;7.10;62.20;;;;;;5095325;28;20218;-86
2022/03/24 06:32:03;;;;;;;19.63;11.17;;;7.00;62.60;;;;;;5094249;28;20694;-85
2022/03/24 06:34:29;;;;;;;22.20;10.97;;;7.00;63.10;;;;;;5075941;28;20237;-86
2022/03/24 06:36:55;;;;;;;19.50;11.17;;;6.90;63.40;;;;;;5093863;28;20203;-84
2022/03/24 06:39:22;;;;;;;18.50;11.07;;;6.90;63.40;;;;;;5094092;28;20179;-83
2022/03/24 06:41:48;;;;;;;19.40;10.30;;;6.90;63.30;;;;;;5095425;28;20177;-84
2022/03/24 06:44:15;;;;;;;18.23;10.43;;;7.00;62.70;;;;;;5095376;28;20177;-87
2022/03/24 06:46:40;;;;;;;20.40;10.37;;;7.10;62.80;;;;;;5095524;28;20189;-83
2022/03/24 06:49:07;;;;;;;9.33;6.27;;;7.10;62.60;;;;;;5097004;28;20591;-86
2022/03/24 06:51:34;;;;;;;9.00;5.00;;;7.30;61.10;;;;;;5095100;28;20632;-84
2022/03/24 06:54:01;;;;;;;8.00;4.13;;;7.80;57.90;;;;;;5093876;28;20550;-86
2022/03/24 06:56:27;;;;;;;8.00;4.07;;;8.20;56.60;;;;;;5094110;28;20195;-90
2022/03/24 06:58:53;;;;;;;7.93;4.10;;;8.70;55.00;;;;;;5075802;28;20185;-89
2022/03/24 07:01:19;;;;;;;5.10;3.40;;;9.00;54.70;;;;;;5075736;28;20259;-89
2022/03/24 07:03:45;;;;;;;6.70;3.77;;;9.10;54.60;;;;;;5095522;28;20519;-87
2022/03/24 07:06:11;;;;;;;12.23;4.37;;;9.20;55.00;;;;;;5077474;28;20183;-85
2022/03/24 07:08:37;;;;;;;7.37;4.13;;;9.30;53.90;;;;;;5093763;28;20173;-88
2022/03/24 07:11:04;;;;;;;9.40;4.50;;;9.40;53.90;;;;;;5093966;28;20175;-85
2022/03/24 07:13:30;;;;;;;9.13;4.93;;;9.40;54.40;;;;;;5093570;28;20629;-84
2022/03/24 07:15:56;;;;;;;8.47;4.60;;;9.40;54.70;;;;;;5094185;28;20201;-83
2022/03/24 07:18:22;;;;;;;8.43;4.17;;;9.50;54.70;;;;;;5096622;28;20174;-82
2022/03/24 07:20:50;;;;;;;4.60;3.83;;;9.70;53.50;;;;;;5094819;28;20570;-83
2022/03/24 07:23:17;;;;;;;9.40;4.43;;;9.90;52.80;;;;;;5095733;28;20159;-84
2022/03/24 07:25:43;;;;;;;15.40;6.77;;;10.00;52.00;;;;;;5094299;28;20166;-87
2022/03/24 07:28:12;;;;;;;17.63;7.97;;;10.20;54.20;;;;;;5095078;28;20646;-85
2022/03/24 07:30:39;;;;;;;20.80;8.00;;;10.10;55.10;;;;;;5094201;28;20226;-84
2022/03/24 07:33:05;;;;;;;19.80;9.27;;;10.10;54.70;;;;;;5094094;28;20631;-83
2022/03/24 07:35:34;;;;;;;14.60;9.23;;;10.20;55.70;;;;;;5094521;28;20234;-83
2022/03/24 07:38:00;;;;;;;19.23;8.83;;;10.30;56.40;;;;;;5093561;28;20186;-85
2022/03/24 07:40:26;;;;;;;18.77;9.67;;;10.20;56.70;;;;;;5101887;28;20197;-83
2022/03/24 07:42:54;;;;;;;18.50;8.97;;;10.10;56.90;;;;;;5099940;28;20171;-87
2022/03/24 07:45:21;;;;;;;22.80;9.73;;;10.20;57.20;;;;;;5076578;28;20180;-84
2022/03/24 07:48:13;;;;;;;20.23;9.97;;;10.10;57.30;;;;;;5094701;28;20525;-84
2022/03/24 07:50:42;;;;;;;17.60;8.57;;;10.10;57.00;;;;;;5094505;28;20564;-86
2022/03/24 07:53:14;;;;;;;33.50;9.63;;;10.20;57.00;;;;;;5093551;28;20206;-86
2022/03/24 07:55:44;;;;;;;27.07;9.60;;;10.30;57.10;;;;;;5075759;28;20214;-86
2022/03/24 07:58:11;;;;;;;24.03;9.03;;;10.30;56.80;;;;;;5093823;28;20166;-87
2022/03/24 08:00:37;;;;;;;22.83;8.47;;;10.40;57.00;;;;;;5078196;28;20202;-84
2022/03/24 08:03:05;;;;;;;16.07;8.30;;;10.50;56.90;;;;;;5102156;28;20540;-86
2022/03/24 08:05:32;;;;;;;16.20;8.20;;;10.50;56.40;;;;;;5100977;28;20185;-84
2022/03/24 08:07:58;;;;;;;17.03;8.60;;;10.80;56.50;;;;;;5077494;28;20193;-87
2022/03/24 08:10:24;;;;;;;22.00;8.70;;;10.80;56.50;;;;;;5094126;28;20170;-85
2022/03/24 08:12:50;;;;;;;19.70;8.47;;;11.00;56.20;;;;;;5098531;28;20180;-87
2022/03/24 08:15:16;;;;;;;18.30;8.17;;;11.00;55.80;;;;;;5097306;28;20219;-84
2022/03/24 08:17:42;;;;;;;20.37;7.77;;;11.00;55.70;;;;;;5096826;28;20217;-85
2022/03/24 08:20:08;;;;;;;17.67;7.67;;;11.10;56.40;;;;;;5096395;28;20239;-85
2022/03/24 08:22:34;;;;;;;22.67;8.80;;;11.20;56.10;;;;;;5096364;28;20175;-85
2022/03/24 08:25:00;;;;;;;31.40;9.20;;;11.30;56.10;;;;;;5096292;28;20187;-86
2022/03/24 08:27:25;;;;;;;23.70;9.23;;;11.50;56.20;;;;;;5096579;28;20170;-85
2022/03/24 08:29:52;;;;;;;18.23;8.77;;;11.60;55.80;;;;;;5098376;28;20224;-86
2022/03/24 08:32:18;;;;;;;20.83;8.67;;;11.70;55.90;;;;;;5097045;28;20537;-86
2022/03/24 08:34:44;;;;;;;21.27;8.30;;;11.70;55.80;;;;;;5080205;28;20203;-86
2022/03/24 08:37:10;;;;;;;18.27;8.67;;;11.80;55.80;;;;;;5096904;28;20587;-89
2022/03/24 08:39:36;;;;;;;18.33;8.47;;;11.90;55.20;;;;;;5097280;28;20217;-84
2022/03/24 08:42:02;;;;;;;23.53;8.03;;;11.90;55.20;;;;;;5096417;28;20197;-84
2022/03/24 08:44:28;;;;;;;16.90;7.97;;;12.00;55.00;;;;;;5096279;28;20175;-85
2022/03/24 08:46:54;;;;;;;13.17;7.47;;;12.30;54.60;;;;;;5096316;28;20181;-84
2022/03/24 08:49:20;;;;;;;15.93;7.93;;;12.30;54.40;;;;;;5096404;28;20536;-83
2022/03/24 08:51:46;;;;;;;13.80;7.57;;;12.30;55.10;;;;;;5096115;28;20257;-89
2022/03/24 08:54:12;;;;;;;16.13;6.93;;;12.30;54.40;;;;;;5096236;28;20251;-89
2022/03/24 08:56:38;;;;;;;20.60;7.37;;;12.40;54.30;;;;;;5077938;28;20245;-89
2022/03/24 08:59:06;;;;;;;15.37;6.90;;;12.50;53.90;;;;;;5078147;28;20255;-90
2022/03/24 09:01:32;;;;;;;14.07;7.07;;;12.60;53.80;;;;;;5096089;28;20172;-86
2022/03/24 09:03:58;;;;;;;20.23;7.20;;;12.70;53.60;;;;;;5096221;28;20180;-88
2022/03/24 09:06:24;;;;;;;19.03;6.93;;;12.90;53.20;;;;;;5078219;28;20297;-89
2022/03/24 09:08:50;;;;;;;16.50;7.43;;;13.00;52.90;;;;;;5096046;28;20258;-86
2022/03/24 09:11:16;;;;;;;16.93;7.00;;;13.00;53.10;;;;;;5096013;28;20177;-87
2022/03/24 09:13:42;;;;;;;34.57;8.60;;;13.10;53.40;;;;;;5096041;28;20528;-89
2022/03/24 09:16:08;;;;;;;20.13;7.33;;;13.20;53.50;;;;;;5097751;28;20245;-86
2022/03/24 09:18:34;;;;;;;17.83;6.50;;;13.30;53.20;;;;;;5097733;28;20174;-86
2022/03/24 09:21:00;;;;;;;13.23;6.80;;;13.40;53.50;;;;;;5095782;28;20199;-87
2022/03/24 09:23:28;;;;;;;13.73;7.33;;;13.50;53.40;;;;;;5095180;28;20514;-85
2022/03/24 09:25:55;;;;;;;20.10;7.10;;;13.60;53.50;;;;;;5077213;28;20231;-86
2022/03/24 09:28:22;;;;;;;14.40;6.37;;;13.80;52.70;;;;;;5077182;28;20175;-88
2022/03/24 09:30:54;;;;;;;8.93;6.07;;;13.90;51.80;;;;;;5077316;28;20204;-87
2022/03/24 09:33:21;;;;;;;11.53;6.13;;;14.00;52.60;;;;;;5096963;28;20157;-87
2022/03/24 09:35:48;;;;;;;12.50;6.43;;;14.20;52.20;;;;;;5078240;28;20262;-85
2022/03/24 09:38:14;;;;;;;15.57;5.70;;;14.30;52.40;;;;;;5077752;28;20185;-86
2022/03/24 09:40:42;;;;;;;10.20;5.80;;;14.40;52.40;;;;;;5079143;28;20206;-86
2022/03/24 09:43:08;;;;;;;12.07;5.60;;;14.50;51.30;;;;;;5081008;28;20671;-87
2022/03/24 09:45:34;;;;;;;19.50;6.00;;;14.70;51.30;;;;;;5098178;28;20653;-89
2022/03/24 09:48:00;;;;;;;10.93;6.27;;;14.80;51.00;;;;;;5096386;28;20168;-89
2022/03/24 09:50:28;;;;;;;20.23;6.03;;;14.80;50.00;;;;;;5076929;28;20676;-85
2022/03/24 09:52:56;;;;;;;18.00;5.73;;;14.90;49.90;;;;;;5094698;28;20637;-85
2022/03/24 09:55:22;;;;;;;12.50;5.33;;;15.00;50.00;;;;;;5095224;28;20209;-84
2022/03/24 09:57:48;;;;;;;11.17;4.97;;;15.20;50.50;;;;;;5094885;28;20171;-86
2022/03/24 10:00:16;;;;;;;10.17;4.63;;;15.30;50.00;;;;;;5094518;28;20206;-85
2022/03/24 10:02:42;;;;;;;12.10;5.00;;;15.40;49.20;;;;;;5094538;28;20630;-86
2022/03/24 10:05:08;;;;;;;10.13;5.23;;;15.50;48.40;;;;;;5095211;28;20258;-85
2022/03/24 10:07:54;;;;;;;11.50;4.90;;;15.60;47.80;;;;;;5095597;28;20653;-85
2022/03/24 10:10:25;;;;;;;18.67;5.10;;;15.70;47.40;;;;;;5095704;28;20172;-89
2022/03/24 10:12:51;;;;;;;9.63;4.30;;;15.80;47.30;;;;;;5098120;28;20170;-84
2022/03/24 10:15:17;;;;;;;7.07;4.30;;;15.90;45.90;;;;;;5096037;28;20218;-88
2022/03/24 10:17:51;;;;;;;8.97;4.70;;;16.10;45.20;;;;;;5094770;28;20184;-85
2022/03/24 10:20:18;;;;;;;9.00;4.20;;;16.20;45.50;;;;;;5094909;28;20638;-84
2022/03/24 10:22:57;;;;;;;4.83;3.93;;;16.20;45.20;;;;;;5086179;28;20185;-82
2022/03/24 10:25:26;;;;;;;7.67;4.40;;;16.30;44.10;;;;;;5107712;28;20174;-83
2022/03/24 10:28:05;;;;;;;4.30;3.90;;;16.40;44.20;;;;;;5104513;28;20173;-87
2022/03/24 10:30:52;;;;;;;5.07;3.63;;;16.60;42.80;;;;;;5100734;28;20233;-85
2022/03/24 10:33:39;;;;;;;6.50;3.57;;;16.70;42.50;;;;;;5099074;28;20634;-84
2022/03/24 10:36:19;;;;;;;5.00;3.27;;;16.70;41.50;;;;;;5094804;28;20206;-87
2022/03/24 10:38:50;;;;;;;4.47;3.67;;;16.70;41.80;;;;;;5076174;28;20172;-89
2022/03/24 10:41:19;;;;;;;4.43;3.20;;;16.80;41.20;;;;;;5095325;28;20505;-87
2022/03/24 10:43:47;;;;;;;7.90;4.03;;;16.80;41.00;;;;;;5094916;28;20166;-85
2022/03/24 10:46:21;;;;;;;3.63;3.33;;;16.70;41.60;;;;;;5076336;28;20189;-88
2022/03/24 10:48:48;;;;;;;7.93;3.47;;;16.90;41.30;;;;;;5076584;28;20170;-89
2022/03/24 10:51:26;;;;;;;6.50;3.30;;;17.00;41.00;;;;;;5094542;28;20175;-87
2022/03/24 10:54:02;;;;;;;5.43;3.20;;;17.10;40.40;;;;;;5094244;28;20224;-85
2022/03/24 10:56:33;;;;;;;4.27;3.30;;;17.10;40.70;;;;;;5075878;28;20205;-86
2022/03/24 10:59:03;;;;;;;4.60;3.37;;;17.20;39.20;;;;;;5094233;28;20629;-86
2022/03/24 11:01:31;;;;;;;3.03;2.83;;;17.40;38.30;;;;;;5094010;28;20262;-85
2022/03/24 11:03:57;;;;;;;3.67;2.87;;;17.40;38.10;;;;;;5093873;28;20166;-88
2022/03/24 11:06:23;;;;;;;3.43;2.90;;;17.20;37.70;;;;;;5093748;28;20230;-88
2022/03/24 11:08:54;;;;;;;7.27;2.80;;;17.20;37.90;;;;;;5075700;28;20178;-86
2022/03/24 11:11:21;;;;;;;3.90;2.80;;;17.20;37.60;;;;;;5094237;28;20175;-87
2022/03/24 11:13:54;;;;;;;3.03;2.83;;;17.30;37.50;;;;;;5075709;28;20182;-86
2022/03/24 11:16:22;;;;;;;2.90;2.60;;;17.50;38.00;;;;;;5075491;28;20652;-86
2022/03/24 11:18:50;;;;;;;27.67;5.87;;;17.60;36.50;;;;;;5094011;28;20173;-84
2022/03/24 11:21:34;;;;;;;7.40;3.70;;;17.60;37.10;;;;;;5094481;28;20269;-86
2022/03/24 11:24:01;;;;;;;4.80;3.83;;;17.60;36.70;;;;;;5094450;28;20183;-86
2022/03/24 11:26:28;;;;;;;6.63;4.40;;;17.70;36.80;;;;;;5094993;28;20177;-85
2022/03/24 11:28:56;;;;;;;14.37;4.87;;;17.80;36.30;;;;;;5093780;28;20232;-87
2022/03/24 11:31:23;;;;;;;10.00;3.13;;;17.90;35.80;;;;;;5093827;28;20181;-86
2022/03/24 11:33:51;;;;;;;5.07;2.70;;;18.00;35.70;;;;;;5093466;28;20260;-87
2022/03/24 11:36:21;;;;;;;4.53;2.50;;;18.00;35.50;;;;;;5093650;28;20174;-87
2022/03/24 11:38:52;;;;;;;2.23;2.13;;;18.10;34.90;;;;;;5093849;28;20166;-86
2022/03/24 11:41:33;;;;;;;2.70;2.50;;;18.10;33.50;;;;;;5093428;28;20173;-86
2022/03/24 11:44:08;;;;;;;4.30;2.23;;;18.10;33.30;;;;;;5075707;28;20178;-85
2022/03/24 11:46:53;;;;;;;4.03;2.27;;;18.20;32.50;;;;;;5096376;28;20200;-85
2022/03/24 11:49:24;;;;;;;5.17;2.27;;;18.30;34.00;;;;;;5102300;28;20180;-84
2022/03/24 11:51:59;;;;;;;2.60;2.07;;;18.30;33.10;;;;;;5092911;28;20171;-84
2022/03/24 11:54:33;;;;;;;2.40;2.20;;;18.40;32.70;;;;;;5110940;28;20709;-85
2022/03/24 11:57:24;;;;;;;8.10;2.40;;;18.50;33.00;;;;;;5105414;28;20167;-85
2022/03/24 12:00:11;;;;;;;4.03;2.40;;;18.50;32.60;;;;;;5104273;28;20167;-85
2022/03/24 12:02:37;;;;;;;7.23;3.07;;;18.50;33.00;;;;;;5084082;28;20169;-84
2022/03/24 12:05:03;;;;;;;6.87;2.40;;;18.50;33.60;;;;;;5107264;28;20260;-83
2022/03/24 12:07:30;;;;;;;3.23;2.57;;;18.60;33.80;;;;;;5105388;28;20166;-85
2022/03/24 12:09:57;;;;;;;2.67;2.23;;;18.70;33.30;;;;;;5098868;28;20167;-85
2022/03/24 12:12:23;;;;;;;4.30;2.60;;;18.70;33.30;;;;;;5080638;28;20178;-84
2022/03/24 12:14:53;;;;;;;6.43;3.90;;;18.70;32.20;;;;;;5097640;28;20289;-86
2022/03/24 12:17:31;;;;;;;4.77;2.83;;;18.70;32.80;;;;;;5079728;28;20257;-86
2022/03/24 12:20:20;;;;;;;2.80;2.50;;;18.50;33.20;;;;;;5084898;28;20231;-87
2022/03/24 12:22:47;;;;;;;4.70;2.47;;;18.50;33.60;;;;;;5098094;28;20158;-85
2022/03/24 12:25:12;;;;;;;4.93;2.73;;;18.40;34.50;;;;;;5104260;28;20167;-82
2022/03/24 12:28:07;;;;;;;3.30;2.47;;;18.50;33.40;;;;;;5099245;28;20175;-84
2022/03/24 12:30:51;;;;;;;2.77;2.57;;;18.60;33.30;;;;;;5097123;28;20222;-82
2022/03/24 12:33:46;;;;;;;3.10;2.90;;;18.60;33.60;;;;;;5097579;28;20630;-85
2022/03/24 12:36:14;;;;;;;4.10;2.40;;;18.60;34.30;;;;;;5097178;28;20258;-88
2022/03/24 12:38:43;;;;;;;2.80;2.60;;;18.70;33.00;;;;;;5097653;28;20637;-88
2022/03/24 12:41:09;;;;;;;6.30;2.77;;;18.80;33.90;;;;;;5097278;28;20171;-88
2022/03/24 12:43:57;;;;;;;4.03;2.30;;;18.70;33.80;;;;;;5097671;28;20191;-87
2022/03/24 12:46:27;;;;;;;3.93;2.40;;;18.60;32.30;;;;;;5097402;28;20176;-87
2022/03/24 12:48:59;;;;;;;3.00;2.80;;;18.60;32.50;;;;;;5096485;28;20186;-85
2022/03/24 12:51:27;;;;;;;3.50;2.70;;;18.80;33.20;;;;;;5096274;28;20158;-85
2022/03/24 12:54:05;;;;;;;2.77;2.60;;;18.80;32.50;;;;;;5079591;28;20333;-86
2022/03/24 12:56:33;;;;;;;3.03;2.17;;;18.80;32.30;;;;;;5102701;28;20676;-89